Time;durP1;ratioP1;P1;durP2;ratioP2;P2;SDS_P1;SDS_P2;PMS_P1;PMS_P2;Temp;Humidity;BMP_temperature;BMP_pressure;BME280_temperature;BME280_humidity;BME280_pressure;Samples;Min_cycle;Max_cycle;Signal;HPM_P1;HPM_P2
2022/12/07 00:00:41;;;;;;;16.60;10.93;;;7.00;93.50;;;;;;5044508;28;20131;-72
2022/12/07 00:03:06;;;;;;;16.73;11.48;;;7.00;93.40;;;;;;5040787;28;20028;-72
2022/12/07 00:05:32;;;;;;;19.98;10.82;;;7.00;93.30;;;;;;5042125;28;20056;-72
2022/12/07 00:07:57;;;;;;;17.73;10.55;;;7.00;93.20;;;;;;5038772;28;20068;-73
2022/12/07 00:10:23;;;;;;;15.57;9.88;;;6.90;93.20;;;;;;5039624;28;20033;-73
2022/12/07 00:12:49;;;;;;;14.38;10.25;;;6.90;93.10;;;;;;5033906;28;20053;-71
2022/12/07 00:15:15;;;;;;;18.60;10.75;;;6.90;93.00;;;;;;5016958;28;20031;-72
2022/12/07 00:17:47;;;;;;;18.70;10.65;;;6.90;92.90;;;;;;5042165;28;20038;-72
2022/12/07 00:20:13;;;;;;;16.88;12.00;;;6.90;92.90;;;;;;5035059;28;20040;-72
2022/12/07 00:22:39;;;;;;;16.83;10.48;;;6.80;92.80;;;;;;5039220;28;20030;-73
2022/12/07 00:25:05;;;;;;;16.83;9.65;;;6.80;92.80;;;;;;5039545;28;20021;-72
2022/12/07 00:27:31;;;;;;;18.50;11.32;;;6.80;92.80;;;;;;5039921;28;20083;-73
2022/12/07 00:29:56;;;;;;;20.13;10.43;;;6.80;92.70;;;;;;5036227;28;20125;-72
2022/12/07 00:32:22;;;;;;;15.90;10.50;;;6.70;92.70;;;;;;5016342;28;20566;-72
2022/12/07 00:34:47;;;;;;;17.48;10.38;;;6.70;92.80;;;;;;5037316;28;20026;-72
2022/12/07 00:37:13;;;;;;;20.25;10.82;;;6.60;92.90;;;;;;5022039;28;20033;-72
2022/12/07 00:39:39;;;;;;;16.10;9.65;;;6.60;93.00;;;;;;5026162;28;20087;-73
2022/12/07 00:42:04;;;;;;;15.50;10.85;;;6.50;93.00;;;;;;5040903;28;20031;-72
2022/12/07 00:44:31;;;;;;;15.48;9.73;;;6.50;93.20;;;;;;5030409;28;20083;-72
2022/12/07 00:46:57;;;;;;;15.25;9.57;;;6.50;93.00;;;;;;5041967;28;20479;-73
2022/12/07 00:49:22;;;;;;;15.93;9.65;;;6.50;92.90;;;;;;5014742;28;20021;-73
2022/12/07 00:51:49;;;;;;;17.10;10.05;;;6.50;92.90;;;;;;5030882;28;20124;-72
2022/12/07 00:54:14;;;;;;;14.88;9.55;;;6.60;92.90;;;;;;5035648;28;20083;-72
2022/12/07 00:56:40;;;;;;;16.98;10.43;;;6.50;92.90;;;;;;5039870;28;20030;-72
2022/12/07 00:59:05;;;;;;;16.88;10.32;;;6.50;92.90;;;;;;5039060;28;20796;-73
2022/12/07 01:01:34;;;;;;;17.42;10.60;;;6.50;93.00;;;;;;5037362;28;20467;-72
2022/12/07 01:04:03;;;;;;;19.88;10.80;;;6.50;93.10;;;;;;5034504;28;20029;-73
2022/12/07 01:06:29;;;;;;;17.48;12.00;;;6.50;93.10;;;;;;5037064;28;20118;-72
2022/12/07 01:08:55;;;;;;;18.48;10.88;;;6.40;93.20;;;;;;5040620;28;20032;-71
2022/12/07 01:11:23;;;;;;;16.17;10.00;;;6.40;93.30;;;;;;5031218;28;20025;-72
2022/12/07 01:13:53;;;;;;;17.58;10.98;;;6.30;93.30;;;;;;5027621;28;20025;-73
2022/12/07 01:16:20;;;;;;;19.83;9.57;;;6.30;93.40;;;;;;5033291;28;20087;-72
2022/12/07 01:18:48;;;;;;;18.90;11.35;;;6.30;93.30;;;;;;5024524;28;20057;-72
2022/12/07 01:21:20;;;;;;;18.40;10.27;;;6.20;93.40;;;;;;5035278;28;20024;-72
2022/12/07 01:23:46;;;;;;;19.25;10.75;;;6.30;93.40;;;;;;5049832;28;20025;-72
2022/12/07 01:26:15;;;;;;;21.67;11.00;;;6.30;93.20;;;;;;5019645;28;20021;-73
2022/12/07 01:28:41;;;;;;;18.50;10.43;;;6.20;93.30;;;;;;5030245;28;20061;-73
2022/12/07 01:31:14;;;;;;;21.85;10.50;;;6.20;93.60;;;;;;5034193;28;20112;-72
2022/12/07 01:33:41;;;;;;;21.63;10.73;;;6.20;93.40;;;;;;5039024;28;20560;-73
2022/12/07 01:36:17;;;;;;;19.55;11.73;;;6.20;93.30;;;;;;5038252;28;20546;-71
2022/12/07 01:38:44;;;;;;;19.45;11.35;;;6.10;93.40;;;;;;5036151;28;20033;-72
2022/12/07 01:41:10;;;;;;;17.70;11.18;;;6.10;93.40;;;;;;5035753;28;20017;-72
2022/12/07 01:43:36;;;;;;;18.67;10.30;;;6.10;93.40;;;;;;5039532;28;20112;-73
2022/12/07 01:46:04;;;;;;;16.67;10.15;;;6.10;93.70;;;;;;5037448;28;20100;-72
2022/12/07 01:48:40;;;;;;;20.67;10.60;;;6.10;93.40;;;;;;5020092;28;20048;-72
2022/12/07 01:51:10;;;;;;;16.98;10.68;;;6.10;93.40;;;;;;5036426;28;20080;-73
2022/12/07 01:53:39;;;;;;;21.88;12.48;;;6.10;93.20;;;;;;5040326;28;20041;-73
2022/12/07 01:56:07;;;;;;;19.00;10.23;;;6.10;93.20;;;;;;5042621;28;20085;-73
2022/12/07 01:58:33;;;;;;;15.65;9.40;;;6.00;93.20;;;;;;5041229;28;20024;-72
2022/12/07 02:00:58;;;;;;;21.25;10.98;;;6.00;93.20;;;;;;5034407;28;20613;-72
2022/12/07 02:03:32;;;;;;;19.10;10.20;;;6.00;93.10;;;;;;5019723;28;20025;-72
2022/12/07 02:05:59;;;;;;;18.25;9.48;;;5.90;93.20;;;;;;5035356;28;20080;-72
2022/12/07 02:08:25;;;;;;;21.27;11.32;;;5.90;93.40;;;;;;5035554;28;20138;-73
2022/12/07 02:10:51;;;;;;;23.77;11.60;;;5.90;93.40;;;;;;5034878;28;20033;-72
2022/12/07 02:13:21;;;;;;;14.70;9.25;;;5.90;93.50;;;;;;5035697;28;20051;-72
2022/12/07 02:16:17;;;;;;;20.90;9.80;;;5.90;93.60;;;;;;5036231;28;20016;-73
2022/12/07 02:19:17;;;;;;;18.58;10.45;;;5.80;93.80;;;;;;5034561;28;20037;-71
2022/12/07 02:21:55;;;;;;;19.60;11.10;;;5.80;93.80;;;;;;5035621;28;20138;-72
2022/12/07 02:24:42;;;;;;;19.92;10.65;;;5.80;93.70;;;;;;5033317;28;20787;-73
2022/12/07 02:27:24;;;;;;;18.83;9.15;;;5.80;93.60;;;;;;5033925;28;20572;-72
2022/12/07 02:30:00;;;;;;;27.58;10.75;;;5.80;93.60;;;;;;5035403;28;20072;-72
2022/12/07 02:32:58;;;;;;;21.25;10.00;;;5.80;93.60;;;;;;5033770;28;20041;-72
2022/12/07 02:35:37;;;;;;;21.20;10.80;;;5.70;93.90;;;;;;5031924;28;20034;-72
2022/12/07 02:38:26;;;;;;;18.98;10.15;;;5.70;93.60;;;;;;5031784;28;20033;-72
2022/12/07 02:40:56;;;;;;;21.17;10.20;;;5.70;93.70;;;;;;5035987;28;20029;-73
2022/12/07 02:43:45;;;;;;;17.73;9.23;;;5.70;93.60;;;;;;5035352;28;20102;-72
2022/12/07 02:46:23;;;;;;;25.67;10.73;;;5.70;93.40;;;;;;5030086;28;20035;-72
2022/12/07 02:48:50;;;;;;;22.33;10.07;;;5.70;93.40;;;;;;5042931;28;20794;-72
2022/12/07 02:51:17;;;;;;;21.58;9.50;;;5.70;93.30;;;;;;5034101;28;20491;-72
2022/12/07 02:53:44;;;;;;;22.27;10.23;;;5.70;93.40;;;;;;5037545;28;20076;-72
2022/12/07 02:56:15;;;;;;;20.92;9.88;;;5.70;93.30;;;;;;5039364;28;20028;-72
2022/12/07 02:58:46;;;;;;;21.33;10.02;;;5.60;93.30;;;;;;5031783;28;20041;-72
2022/12/07 03:02:04;;;;;;;19.50;10.02;;;5.60;93.40;;;;;;5035641;28;20076;-72
2022/12/07 03:04:45;;;;;;;17.42;10.25;;;5.60;93.50;;;;;;5016392;28;20033;-72
2022/12/07 03:07:20;;;;;;;17.10;9.57;;;5.60;93.50;;;;;;5022294;28;20028;-72
2022/12/07 03:10:05;;;;;;;20.58;9.48;;;5.60;93.40;;;;;;5036986;28;20276;-72
2022/12/07 03:12:49;;;;;;;15.93;8.85;;;5.60;93.50;;;;;;5037648;28;20367;-72
2022/12/07 03:15:23;;;;;;;19.40;9.65;;;5.60;93.60;;;;;;5037620;28;20021;-72
2022/12/07 03:17:50;;;;;;;18.77;9.00;;;5.60;93.60;;;;;;5041843;28;20041;-73
2022/12/07 03:20:21;;;;;;;20.80;9.65;;;5.70;93.70;;;;;;5024995;28;20069;-73
2022/12/07 03:22:47;;;;;;;14.57;9.13;;;5.60;93.70;;;;;;5038902;28;20060;-73
2022/12/07 03:25:16;;;;;;;19.50;9.13;;;5.70;93.80;;;;;;5039161;28;20029;-73
2022/12/07 03:27:52;;;;;;;16.80;7.18;;;5.60;93.80;;;;;;5034319;28;20040;-73
2022/12/07 03:30:22;;;;;;;14.02;7.68;;;5.60;93.90;;;;;;5036519;28;20025;-74
2022/12/07 03:32:57;;;;;;;16.02;7.72;;;5.60;94.00;;;;;;5040365;28;20124;-73
2022/12/07 03:35:28;;;;;;;15.05;7.15;;;5.70;94.10;;;;;;5045009;28;20033;-72
2022/12/07 03:37:58;;;;;;;18.60;7.28;;;5.70;94.10;;;;;;5035735;28;20051;-74
2022/12/07 03:40:39;;;;;;;16.63;7.85;;;5.70;94.00;;;;;;5047397;28;20025;-74
2022/12/07 03:43:06;;;;;;;18.13;6.40;;;5.70;94.00;;;;;;5042212;28;20120;-73
2022/12/07 03:45:43;;;;;;;17.65;7.22;;;5.80;93.90;;;;;;5037393;28;20029;-73
2022/12/07 03:48:20;;;;;;;13.65;6.40;;;5.80;93.90;;;;;;5029040;28;20064;-73
2022/12/07 03:50:56;;;;;;;16.02;7.28;;;5.80;93.90;;;;;;5038684;28;20090;-71
2022/12/07 03:53:29;;;;;;;14.18;6.55;;;5.80;93.80;;;;;;5033735;28;20483;-72
2022/12/07 03:55:56;;;;;;;17.88;7.68;;;5.90;93.80;;;;;;5038465;28;20025;-73
2022/12/07 03:58:23;;;;;;;15.48;7.03;;;5.90;93.70;;;;;;5035205;28;20017;-73
2022/12/07 04:00:50;;;;;;;14.10;6.45;;;5.90;93.70;;;;;;5040077;28;20492;-72
2022/12/07 04:03:19;;;;;;;15.63;6.22;;;5.90;93.50;;;;;;5041305;28;20033;-72
2022/12/07 04:05:45;;;;;;;12.98;5.68;;;5.90;93.50;;;;;;5042260;28;20029;-72
2022/12/07 04:08:12;;;;;;;13.65;5.57;;;5.90;93.40;;;;;;5037148;28;20087;-72
2022/12/07 04:10:38;;;;;;;17.10;6.25;;;5.90;93.40;;;;;;5044172;28;20036;-73
2022/12/07 04:13:04;;;;;;;17.48;5.95;;;5.90;93.50;;;;;;5038387;28;20049;-72
2022/12/07 04:15:30;;;;;;;14.55;5.30;;;5.90;93.50;;;;;;5040515;28;20022;-72
2022/12/07 04:17:55;;;;;;;13.57;6.15;;;5.90;93.40;;;;;;5036912;28;20028;-73
2022/12/07 04:20:22;;;;;;;14.95;5.65;;;5.90;93.40;;;;;;5039944;28;20185;-73
2022/12/07 04:22:47;;;;;;;21.45;6.25;;;6.00;93.30;;;;;;5036008;28;20039;-72
2022/12/07 04:25:13;;;;;;;14.07;6.30;;;6.00;93.20;;;;;;5031146;28;20034;-72
2022/12/07 04:27:39;;;;;;;14.40;7.00;;;6.00;93.20;;;;;;5038838;28;20071;-73
2022/12/07 04:30:05;;;;;;;14.40;6.35;;;6.00;93.20;;;;;;5040605;28;20056;-73
2022/12/07 04:32:32;;;;;;;12.02;5.50;;;6.00;93.20;;;;;;5041968;28;20044;-73
2022/12/07 04:34:57;;;;;;;15.27;5.03;;;6.00;93.10;;;;;;5040715;28;20052;-72
2022/12/07 04:37:24;;;;;;;19.58;5.65;;;6.00;93.10;;;;;;5040433;28;20025;-74
2022/12/07 04:39:49;;;;;;;18.55;6.15;;;6.00;93.20;;;;;;5040833;28;20017;-72
2022/12/07 04:42:15;;;;;;;16.52;5.65;;;5.90;93.30;;;;;;5037739;28;20402;-73
2022/12/07 04:44:42;;;;;;;13.55;5.25;;;6.00;93.40;;;;;;5037402;28;20029;-72
2022/12/07 04:47:07;;;;;;;19.40;5.88;;;6.00;93.50;;;;;;5035196;28;20053;-72
2022/12/07 04:49:33;;;;;;;16.08;5.40;;;6.00;93.50;;;;;;5040530;28;20067;-72
2022/12/07 04:51:58;;;;;;;13.20;5.45;;;5.90;93.60;;;;;;5036160;28;20040;-72
2022/12/07 04:54:24;;;;;;;12.90;5.47;;;5.90;93.60;;;;;;5038428;28;20028;-72
2022/12/07 04:56:50;;;;;;;10.63;4.10;;;5.90;93.70;;;;;;5035333;28;20033;-72
2022/12/07 04:59:17;;;;;;;18.63;5.28;;;5.90;93.80;;;;;;5038684;28;20063;-72
2022/12/07 05:01:44;;;;;;;11.85;4.65;;;5.90;93.80;;;;;;5036620;28;20064;-73
2022/12/07 05:04:10;;;;;;;17.52;5.10;;;6.00;93.70;;;;;;5034445;28;20456;-73
2022/12/07 05:06:36;;;;;;;12.02;4.40;;;6.00;93.60;;;;;;5038655;28;20612;-73
2022/12/07 05:09:02;;;;;;;12.55;5.20;;;6.00;93.50;;;;;;5019476;28;20026;-72
2022/12/07 05:11:37;;;;;;;14.48;4.47;;;6.00;93.40;;;;;;5036559;28;20025;-72
2022/12/07 05:14:06;;;;;;;12.15;3.65;;;6.00;93.30;;;;;;5037498;28;20617;-72
2022/12/07 05:16:32;;;;;;;9.07;4.50;;;6.00;93.10;;;;;;5035926;28;20022;-72
2022/12/07 05:18:58;;;;;;;10.27;4.28;;;6.00;93.00;;;;;;5038051;28;20021;-73
2022/12/07 05:21:24;;;;;;;12.85;4.20;;;6.00;92.80;;;;;;5033202;28;20563;-73
2022/12/07 05:23:50;;;;;;;10.15;3.58;;;6.00;92.70;;;;;;5037201;28;20033;-72
2022/12/07 05:26:16;;;;;;;15.52;4.57;;;6.00;92.70;;;;;;5038323;28;20044;-72
2022/12/07 05:28:42;;;;;;;14.63;4.60;;;5.90;92.80;;;;;;5035347;28;20036;-72
2022/12/07 05:31:07;;;;;;;14.65;4.35;;;5.90;92.80;;;;;;5034179;28;20022;-73
2022/12/07 05:33:33;;;;;;;10.40;4.13;;;5.90;92.80;;;;;;5035874;28;20111;-72
2022/12/07 05:36:05;;;;;;;10.27;4.30;;;5.80;92.80;;;;;;5025568;28;20494;-72
2022/12/07 05:38:33;;;;;;;16.95;4.45;;;5.90;92.90;;;;;;5038480;28;20029;-73
2022/12/07 05:41:06;;;;;;;11.18;4.20;;;5.80;92.80;;;;;;5037385;28;20056;-72
2022/12/07 05:43:32;;;;;;;13.45;3.47;;;5.80;93.00;;;;;;5036909;28;20388;-72
2022/12/07 05:45:59;;;;;;;11.30;4.20;;;5.90;93.10;;;;;;5036301;28;20029;-72
2022/12/07 05:48:26;;;;;;;15.63;6.43;;;5.90;93.40;;;;;;5033335;28;20385;-72
2022/12/07 05:50:52;;;;;;;13.90;4.13;;;5.90;93.10;;;;;;5017607;28;20559;-73
2022/12/07 05:53:18;;;;;;;11.77;4.43;;;5.90;93.00;;;;;;5039406;28;20037;-73
2022/12/07 05:55:44;;;;;;;15.00;5.95;;;5.90;92.90;;;;;;5028903;28;20021;-72
2022/12/07 06:00:55;;;;;;;10.90;3.80;;;5.90;92.90;;;;;;5035914;28;20132;-72
2022/12/07 06:03:21;;;;;;;12.30;4.45;;;5.80;92.70;;;;;;5036082;28;20037;-72
2022/12/07 06:05:47;;;;;;;11.18;3.78;;;5.80;92.60;;;;;;5041106;28;20037;-73
2022/12/07 06:08:14;;;;;;;12.05;4.38;;;5.80;92.40;;;;;;5037643;28;20054;-73
2022/12/07 06:10:41;;;;;;;15.38;4.28;;;5.80;92.40;;;;;;5040734;28;20029;-72
2022/12/07 06:13:07;;;;;;;9.88;4.22;;;5.80;92.40;;;;;;5013323;28;20045;-73
2022/12/07 06:15:36;;;;;;;13.38;4.30;;;5.80;92.30;;;;;;5040980;28;20272;-73
2022/12/07 06:18:01;;;;;;;11.05;3.72;;;5.70;92.20;;;;;;5035654;28;20045;-72
2022/12/07 06:20:27;;;;;;;14.82;3.65;;;5.70;92.20;;;;;;5039286;28;20104;-72
2022/12/07 06:22:53;;;;;;;14.43;4.15;;;5.70;92.40;;;;;;5037741;28;20409;-73
2022/12/07 06:25:18;;;;;;;11.77;3.80;;;5.70;92.40;;;;;;5039466;28;20521;-72
2022/12/07 06:27:44;;;;;;;13.02;3.63;;;5.70;92.40;;;;;;5040960;28;20053;-73
2022/12/07 06:30:10;;;;;;;13.13;3.50;;;5.60;92.50;;;;;;5045223;28;20032;-71
2022/12/07 06:32:37;;;;;;;10.63;3.53;;;5.60;92.60;;;;;;5035216;28;20098;-72
2022/12/07 06:35:04;;;;;;;12.60;3.78;;;5.60;92.60;;;;;;5036876;28;20103;-71
2022/12/07 06:37:30;;;;;;;9.80;3.75;;;5.50;92.70;;;;;;5039417;28;20024;-73
2022/12/07 06:39:56;;;;;;;11.20;3.47;;;5.50;92.70;;;;;;5035297;28;20087;-74
2022/12/07 06:42:21;;;;;;;9.82;4.03;;;5.50;92.70;;;;;;5039900;28;20030;-72
2022/12/07 06:44:47;;;;;;;13.93;4.40;;;5.50;92.70;;;;;;5032117;28;20025;-74
2022/12/07 06:47:13;;;;;;;18.23;4.00;;;5.50;92.60;;;;;;5035846;28;20493;-73
2022/12/07 06:49:38;;;;;;;10.63;3.33;;;5.50;92.70;;;;;;5033473;28;20029;-73
2022/12/07 06:52:07;;;;;;;13.52;3.28;;;5.40;92.80;;;;;;5033976;28;20124;-71
2022/12/07 06:54:32;;;;;;;11.23;4.22;;;5.40;93.00;;;;;;5033613;28;20043;-72
2022/12/07 06:56:58;;;;;;;12.38;4.05;;;5.40;93.00;;;;;;5029839;28;20022;-72
2022/12/07 06:59:24;;;;;;;13.82;3.60;;;5.40;93.00;;;;;;5036947;28;20533;-72
2022/12/07 07:01:49;;;;;;;13.25;3.70;;;5.40;92.90;;;;;;5035464;28;20395;-73
2022/12/07 07:04:15;;;;;;;12.73;3.40;;;5.40;92.90;;;;;;5034038;28;20463;-71
2022/12/07 07:06:41;;;;;;;7.85;3.10;;;5.40;93.10;;;;;;5041706;28;20039;-72
2022/12/07 07:09:09;;;;;;;12.75;3.40;;;5.40;93.20;;;;;;5032077;28;20879;-72
2022/12/07 07:11:34;;;;;;;14.25;3.65;;;5.40;93.30;;;;;;5033847;28;20028;-73
2022/12/07 07:14:02;;;;;;;14.15;3.83;;;5.50;93.30;;;;;;5036151;28;20029;-72
2022/12/07 07:16:30;;;;;;;13.30;3.85;;;5.50;93.20;;;;;;5035379;28;20052;-72
2022/12/07 07:18:56;;;;;;;12.60;3.70;;;5.50;93.10;;;;;;5019338;28;20017;-73
2022/12/07 07:21:21;;;;;;;14.65;3.58;;;5.60;93.00;;;;;;5013526;28;20553;-73
2022/12/07 07:23:47;;;;;;;16.35;3.53;;;5.60;92.90;;;;;;5029875;28;20069;-72
2022/12/07 07:26:13;;;;;;;10.63;3.30;;;5.60;92.90;;;;;;5036999;28;20029;-72
2022/12/07 07:28:43;;;;;;;10.10;3.42;;;5.50;92.90;;;;;;5038386;28;20033;-73
2022/12/07 07:31:08;;;;;;;9.80;3.17;;;5.50;92.90;;;;;;5040035;28;20057;-73
2022/12/07 07:33:34;;;;;;;11.65;2.67;;;5.50;92.80;;;;;;5019466;28;20153;-72
2022/12/07 07:36:00;;;;;;;9.95;2.55;;;5.50;92.70;;;;;;5024742;28;20025;-72
2022/12/07 07:38:25;;;;;;;14.68;2.75;;;5.50;92.70;;;;;;5035539;28;20110;-71
2022/12/07 07:40:51;;;;;;;9.30;3.47;;;5.50;92.70;;;;;;5016178;28;20858;-73
2022/12/07 07:43:17;;;;;;;12.20;2.65;;;5.50;92.60;;;;;;5034857;28;20034;-73
2022/12/07 07:45:43;;;;;;;9.48;2.50;;;5.50;92.60;;;;;;5033501;28;20029;-72
2022/12/07 07:48:09;;;;;;;10.30;3.30;;;5.50;92.60;;;;;;5029374;28;20112;-72
2022/12/07 07:50:35;;;;;;;8.45;2.30;;;5.50;92.60;;;;;;5038014;28;20537;-72
2022/12/07 07:53:00;;;;;;;14.73;3.63;;;5.50;92.60;;;;;;5026006;28;20103;-72
2022/12/07 07:55:26;;;;;;;9.77;2.72;;;5.50;92.50;;;;;;5040008;28;20026;-71
2022/12/07 07:57:52;;;;;;;13.90;4.07;;;5.50;92.60;;;;;;5040649;28;21151;-72
2022/12/07 08:00:17;;;;;;;10.18;3.10;;;5.50;93.00;;;;;;5026087;28;20124;-72
2022/12/07 08:02:43;;;;;;;9.68;3.28;;;5.60;92.70;;;;;;5044932;28;20533;-71
2022/12/07 08:05:11;;;;;;;13.48;4.03;;;5.60;92.70;;;;;;5043785;28;20028;-73
2022/12/07 08:07:37;;;;;;;14.43;3.35;;;5.60;92.70;;;;;;5046082;28;20024;-73
2022/12/07 08:10:03;;;;;;;13.18;3.08;;;5.60;92.60;;;;;;5042337;28;20021;-74
2022/12/07 08:12:29;;;;;;;13.20;3.80;;;5.60;92.70;;;;;;5045737;28;20053;-73
2022/12/07 08:14:55;;;;;;;14.20;3.20;;;5.60;92.80;;;;;;5042028;28;20026;-74
2022/12/07 08:17:21;;;;;;;9.48;3.30;;;5.60;92.80;;;;;;5041723;28;20108;-73
2022/12/07 08:19:48;;;;;;;13.68;3.63;;;5.70;92.90;;;;;;5026698;28;20032;-72
2022/12/07 08:22:13;;;;;;;11.98;3.55;;;5.70;93.00;;;;;;5041466;28;20131;-73
2022/12/07 08:24:39;;;;;;;12.88;2.97;;;5.80;93.10;;;;;;5039559;28;20065;-71
2022/12/07 08:27:05;;;;;;;9.40;2.80;;;5.90;93.10;;;;;;5021839;28;20226;-71
2022/12/07 08:29:30;;;;;;;8.15;2.95;;;6.10;93.20;;;;;;5038217;28;20528;-72
2022/12/07 08:31:56;;;;;;;13.75;3.20;;;6.20;92.70;;;;;;5042462;28;20112;-72
2022/12/07 08:34:22;;;;;;;9.30;3.00;;;6.20;92.60;;;;;;5020236;28;20053;-72
2022/12/07 08:36:47;;;;;;;13.90;3.75;;;6.20;92.60;;;;;;5006210;28;20087;-72
2022/12/07 08:39:13;;;;;;;8.27;3.15;;;6.20;92.60;;;;;;5041190;28;20025;-73
2022/12/07 08:41:40;;;;;;;11.35;5.22;;;6.30;92.60;;;;;;5040540;28;20072;-71
2022/12/07 08:44:06;;;;;;;13.90;4.57;;;6.30;92.60;;;;;;5035163;28;20048;-73
2022/12/07 08:46:45;;;;;;;9.57;2.80;;;6.30;92.50;;;;;;5037629;28;20459;-72
2022/12/07 08:49:18;;;;;;;10.15;3.65;;;6.30;92.50;;;;;;5039661;28;20025;-71
2022/12/07 08:51:45;;;;;;;11.50;3.88;;;6.30;92.40;;;;;;5023392;28;20037;-71
2022/12/07 08:54:16;;;;;;;10.20;2.80;;;6.40;92.40;;;;;;5034373;28;20028;-70
2022/12/07 08:56:42;;;;;;;8.52;3.60;;;6.40;92.30;;;;;;5029094;28;20036;-71
2022/12/07 08:59:08;;;;;;;10.57;4.05;;;6.50;92.50;;;;;;5035030;28;20037;-69
2022/12/07 09:01:34;;;;;;;13.45;4.32;;;6.70;92.30;;;;;;5041511;28;20161;-71
2022/12/07 09:04:00;;;;;;;7.20;2.97;;;7.00;92.70;;;;;;5044146;28;20029;-71
2022/12/07 09:06:25;;;;;;;9.18;2.92;;;7.90;91.80;;;;;;5035863;28;20021;-73
2022/12/07 09:08:56;;;;;;;10.20;2.83;;;9.00;88.80;;;;;;5040667;28;20032;-74
2022/12/07 09:11:21;;;;;;;11.05;2.47;;;9.90;83.70;;;;;;5040773;28;20124;-72
2022/12/07 09:13:47;;;;;;;7.50;2.33;;;10.40;80.30;;;;;;5047881;28;20028;-73
2022/12/07 09:16:13;;;;;;;12.30;2.88;;;10.60;79.00;;;;;;5036399;28;20036;-74
2022/12/07 09:18:39;;;;;;;9.55;2.85;;;10.50;77.20;;;;;;5035473;28;20029;-73
2022/12/07 09:21:04;;;;;;;6.85;2.10;;;10.20;77.50;;;;;;5016123;28;20071;-73
2022/12/07 09:23:30;;;;;;;12.23;3.05;;;9.90;78.80;;;;;;5035313;28;20387;-73
2022/12/07 09:26:00;;;;;;;10.98;2.97;;;9.80;80.40;;;;;;5045904;28;20403;-73
2022/12/07 09:28:26;;;;;;;6.88;2.50;;;10.00;80.50;;;;;;5037101;28;20506;-73
2022/12/07 09:30:51;;;;;;;7.97;2.70;;;10.60;78.60;;;;;;5027994;28;20542;-73
2022/12/07 09:33:17;;;;;;;10.82;2.92;;;11.20;76.80;;;;;;5038819;28;20163;-73
2022/12/07 09:35:46;;;;;;;7.35;2.15;;;11.60;73.90;;;;;;5044334;28;20570;-73
2022/12/07 09:38:13;;;;;;;7.15;1.98;;;12.20;73.30;;;;;;5041562;28;20120;-72
2022/12/07 09:40:39;;;;;;;8.65;2.17;;;12.80;71.00;;;;;;5044316;28;20028;-72
2022/12/07 09:43:05;;;;;;;6.07;1.52;;;13.30;67.90;;;;;;5040144;28;20544;-73
2022/12/07 09:45:40;;;;;;;4.25;0.98;;;13.80;71.40;;;;;;5039569;28;20037;-73
2022/12/07 09:48:20;;;;;;;6.47;1.23;;;14.30;72.10;;;;;;5038187;28;20032;-74
2022/12/07 09:50:48;;;;;;;5.88;2.03;;;14.70;71.60;;;;;;5039816;28;20036;-73
2022/12/07 09:53:28;;;;;;;3.90;1.27;;;14.30;64.90;;;;;;5047283;28;20499;-73
2022/12/07 09:55:54;;;;;;;9.95;2.10;;;13.80;64.90;;;;;;5036445;28;20071;-73
2022/12/07 09:58:26;;;;;;;10.07;2.58;;;13.50;65.00;;;;;;5042455;28;20017;-73
2022/12/07 10:01:19;;;;;;;10.15;2.55;;;13.50;65.90;;;;;;5044494;28;20040;-73
2022/12/07 10:03:49;;;;;;;10.30;2.67;;;13.70;64.60;;;;;;5033831;28;20078;-72
2022/12/07 10:06:20;;;;;;;11.67;2.17;;;13.90;64.40;;;;;;5046836;28;20075;-74
2022/12/07 10:08:46;;;;;;;5.72;1.73;;;14.10;64.20;;;;;;5042789;28;20029;-74
2022/12/07 10:11:19;;;;;;;10.30;2.10;;;14.00;63.10;;;;;;5038802;28;20087;-74
2022/12/07 10:13:48;;;;;;;8.48;2.53;;;14.10;62.20;;;;;;5034335;28;20065;-73
2022/12/07 10:16:32;;;;;;;6.27;2.10;;;14.10;62.20;;;;;;5045293;28;20124;-74
2022/12/07 10:19:27;;;;;;;10.02;2.88;;;14.20;62.70;;;;;;5030249;28;20017;-74
2022/12/07 10:22:11;;;;;;;13.40;2.05;;;13.70;62.80;;;;;;5042098;28;20039;-74
2022/12/07 10:24:40;;;;;;;9.68;2.05;;;13.90;62.60;;;;;;5028016;28;20040;-73
2022/12/07 10:27:17;;;;;;;12.13;2.35;;;13.80;62.10;;;;;;5047914;28;20043;-74
2022/12/07 10:29:49;;;;;;;6.07;2.30;;;13.50;62.90;;;;;;5045962;28;20104;-74
2022/12/07 10:32:15;;;;;;;7.13;1.90;;;13.40;63.50;;;;;;5047255;28;20051;-73
2022/12/07 10:34:41;;;;;;;7.50;1.83;;;13.10;64.10;;;;;;5042043;28;20029;-75
2022/12/07 10:37:17;;;;;;;4.55;1.80;;;12.70;64.00;;;;;;5043893;28;20636;-73
2022/12/07 10:39:55;;;;;;;8.50;2.10;;;12.30;65.40;;;;;;5042711;28;20028;-72
2022/12/07 10:42:21;;;;;;;7.65;2.08;;;12.10;67.40;;;;;;5047944;28;20040;-73
2022/12/07 10:45:24;;;;;;;7.18;2.35;;;12.60;67.40;;;;;;5045332;28;20033;-74
2022/12/07 10:48:05;;;;;;;4.53;1.60;;;12.40;66.00;;;;;;5047321;28;20033;-73
2022/12/07 10:50:56;;;;;;;7.57;2.25;;;12.10;66.60;;;;;;5046647;28;20543;-74
2022/12/07 10:53:44;;;;;;;5.13;1.70;;;11.90;69.00;;;;;;5047664;28;20086;-74
2022/12/07 10:56:18;;;;;;;11.02;1.90;;;11.90;69.50;;;;;;5037367;28;20025;-73
2022/12/07 10:59:15;;;;;;;9.52;1.45;;;12.10;69.00;;;;;;5046439;28;20372;-74
2022/12/07 11:01:46;;;;;;;7.88;1.85;;;11.90;68.30;;;;;;5025704;28;20013;-74
2022/12/07 11:04:25;;;;;;;8.80;2.17;;;11.60;70.30;;;;;;5045714;28;20422;-73
2022/12/07 11:07:10;;;;;;;6.05;1.35;;;11.50;69.90;;;;;;5041188;28;20029;-73
2022/12/07 11:10:02;;;;;;;5.15;1.85;;;11.40;72.30;;;;;;5035373;28;20040;-74
2022/12/07 11:12:47;;;;;;;9.15;2.78;;;11.40;72.20;;;;;;5045364;28;20053;-73
2022/12/07 11:15:40;;;;;;;8.05;2.30;;;11.30;71.90;;;;;;5028430;28;20072;-73
2022/12/07 11:18:26;;;;;;;44.97;30.13;;;11.30;71.30;;;;;;5027597;28;20105;-73
2022/12/07 11:21:10;;;;;;;10.90;4.95;;;11.50;71.00;;;;;;5014825;28;20025;-72
2022/12/07 11:23:42;;;;;;;6.95;2.60;;;11.50;70.80;;;;;;5045284;28;20330;-72
2022/12/07 11:26:28;;;;;;;7.65;2.60;;;11.50;71.60;;;;;;5043948;28;20022;-74
2022/12/07 11:29:03;;;;;;;8.20;2.50;;;11.60;71.80;;;;;;5045824;28;20025;-73
2022/12/07 11:31:46;;;;;;;8.60;4.10;;;11.90;68.90;;;;;;5042420;28;20022;-73
2022/12/07 11:34:22;;;;;;;9.43;3.35;;;12.00;68.90;;;;;;5031228;28;20028;-72
2022/12/07 11:36:54;;;;;;;6.22;2.30;;;11.90;69.70;;;;;;5049028;28;20028;-73
2022/12/07 11:39:44;;;;;;;8.52;2.60;;;12.00;70.20;;;;;;5051910;28;20025;-74
2022/12/07 11:42:21;;;;;;;9.70;2.60;;;12.60;69.10;;;;;;5048889;28;20085;-72
2022/12/07 11:45:02;;;;;;;6.65;2.33;;;13.40;67.00;;;;;;5050737;28;20866;-73
2022/12/07 11:47:35;;;;;;;5.63;2.30;;;13.80;64.90;;;;;;5042072;28;20061;-73
2022/12/07 11:50:00;;;;;;;9.10;2.58;;;14.30;63.90;;;;;;5032375;28;20408;-72
2022/12/07 11:52:49;;;;;;;6.18;1.63;;;14.80;61.60;;;;;;5042864;28;20025;-73
2022/12/07 11:55:43;;;;;;;8.15;1.90;;;15.20;61.10;;;;;;5049043;28;20025;-73
2022/12/07 11:58:49;;;;;;;7.68;1.98;;;15.30;59.50;;;;;;5014517;28;20491;-73
2022/12/07 12:01:40;;;;;;;5.95;1.17;;;14.90;58.90;;;;;;5047615;28;20056;-73
2022/12/07 12:04:27;;;;;;;7.35;1.77;;;14.50;61.70;;;;;;5046853;28;20028;-73
2022/12/07 12:06:52;;;;;;;9.63;1.90;;;13.90;63.20;;;;;;5047175;28;20037;-73
2022/12/07 12:09:48;;;;;;;9.07;2.33;;;13.60;62.50;;;;;;5038296;28;20040;-73
2022/12/07 12:12:24;;;;;;;6.18;1.90;;;13.40;63.40;;;;;;5036350;28;20207;-73
2022/12/07 12:14:52;;;;;;;7.25;1.67;;;13.00;63.70;;;;;;5041620;28;20055;-74
2022/12/07 12:18:01;;;;;;;10.95;3.42;;;12.60;64.40;;;;;;5040888;28;20052;-73
2022/12/07 12:20:37;;;;;;;7.20;2.30;;;12.20;66.00;;;;;;5039484;28;20045;-73
2022/12/07 12:23:28;;;;;;;14.60;3.28;;;12.00;68.50;;;;;;5040756;28;20071;-74
2022/12/07 12:25:58;;;;;;;9.52;3.97;;;12.40;67.80;;;;;;5041888;28;20020;-73
2022/12/07 12:28:33;;;;;;;;;;;13.10;66.70;;;;;;5041020;28;20450;-73
2022/12/07 12:31:20;;;;;;;9.27;2.65;;;13.70;63.70;;;;;;5038956;28;20355;-73
2022/12/07 12:34:02;;;;;;;6.75;2.15;;;14.30;62.10;;;;;;5042195;28;20498;-73
2022/12/07 12:36:32;;;;;;;6.55;1.83;;;14.80;62.20;;;;;;5045099;28;20029;-73
2022/12/07 12:39:08;;;;;;;7.32;2.53;;;15.20;60.10;;;;;;5048583;28;20475;-74
2022/12/07 12:44:18;;;;;;;8.00;1.80;;;15.60;59.80;;;;;;5041036;28;20068;-74
2022/12/07 12:46:59;;;;;;;5.47;1.67;;;15.30;57.90;;;;;;5049157;28;20036;-74
2022/12/07 12:49:26;;;;;;;8.48;4.05;;;14.70;61.30;;;;;;5042422;28;20014;-73
2022/12/07 12:51:57;;;;;;;6.00;1.80;;;14.40;59.90;;;;;;5047466;28;20081;-73
2022/12/07 12:54:25;;;;;;;7.05;2.25;;;14.80;60.00;;;;;;5045687;28;20023;-74
2022/12/07 12:57:19;;;;;;;5.45;2.13;;;14.90;58.70;;;;;;5048805;28;20120;-76
2022/12/07 12:59:53;;;;;;;9.10;2.00;;;15.40;60.30;;;;;;5045245;28;20033;-74
2022/12/07 13:02:27;;;;;;;11.50;1.60;;;15.70;57.70;;;;;;5039649;28;20032;-75
2022/12/07 13:04:56;;;;;;;7.55;1.73;;;15.80;57.00;;;;;;5031439;28;20039;-74
2022/12/07 13:07:47;;;;;;;6.22;1.35;;;15.90;56.40;;;;;;5045920;28;20025;-75
2022/12/07 13:10:28;;;;;;;6.95;1.55;;;16.20;57.20;;;;;;5039779;28;20132;-74